Solrod Strand, Denmark
Current Conditions -  °F | °C
As of 5:20 AM on Monday 24 Nov 2014 (Local Time) from EKRK Reporting Station
Broken Clouds Broken Clouds  
Wind Chill: 38°   Ceiling: 12000
Heat Index: 45°   Visibility: 4mi
Dew Point: 43°   Wind: 13mph
Humidity: 93%   Direction: 170°S
Pressure: 29.85"   Gusts: NA
Location:  55.53°N, 12.22°E
Report Text: EKRK 240420Z AUTO 17011KT 7000NDV SCT095/// BKN120///07/06 Q1011
Loading
Personal Weather Stations






























Interactive Weather Map New forecast layout! Learn more

10-Day Weather Forecast

Advertisements
Track Severe Weather on mobile